LFRN 270730Z AUTO 31010KT 9999 BKN016 14/12 Q1015 NOSIG

ElémentsDécodage
LFRN Station météo située sur l'aérodrome de RENNES Saint-Jacques
270730Z émis le 27 du mois à 07h30 UTC
AUTO Bulletin édité par un automate
31010KT vent du 310°, 10 noeuds
9999 visibilité horizontale supérieure à 10 Km
BKN016 nuages morcelés (5/8 à 7/8) à 1600 pieds
14/12 température 14°C, point de rosée 12°C
 soit une humidité relative de 88%
Q1015 la pression au niveau de la mer (QNH) est de 1015 hPa
NOSIG Pas de changement significatif prévu au cours des deux heures suivant l'heure de l'observation